Tiempo atmosférico en la estación meteorológica de La Roda de Andalucía, Sevilla (410 m.)



Fecha
DESCASC
Temp. máxima en grados centígrados (hora)
DESCASC
Temp. mínima en grados centígrados (hora)
DESCASC
Temp. media en grados centígrados
DESCASC
Racha de viento máxima en m/sg (hora)
DESCASC
Velocidad máxima media en intervalos de 10 minutos(hora)
DESCASC
Precipitaciones diarias en mm
DESCASC
Precipitaciones de 00:00 a 06:00 en mm
DESCASC
Precipitaciones de 06:00 a 12:00 en mm
DESCASC
Precipitaciones de 12:00 a 18:00 en mm
DESCASC
Precipitaciones de 18:00 a 24:00 en mm
DESCASC
02-04-2020 13.8 (18:30) 6.7 (09:30) 10.3 9.72 (15:20) 5.83 (15:30) 6.2 1.2 4.8 0.2 0
01-04-2020 17.7 (17:10) 9.1 (08:30) 13.4 12.78 (20:00) 7.22 (20:10) 1.4 1.4 0 0 0
31-03-2020 16.7 (14:40) 9.9 (00:00) 13.3 11.11 (04:20) 6.67 (04:20) 18.4 7.2 5 3.6 2.6
30-03-2020 18.4 (16:00) 9.8 (06:20) 14.1 6.11 (16:40) 3.61 (16:40) 4 0 0 2.6 1.4
29-03-2020 19.5 (14:00) 6.6 (00:00) 13 5.28 (00:10) 3.33 (00:10) -- -- 0 0 0
28-03-2020 17.8 (13:20) 4.3 (00:00) 11 9.17 (14:40) 5.28 (15:50) 0 0 0 0 0
27-03-2020 18.8 (14:10) 6.8 (00:00) 12.8 10 (10:10) 5.83 (15:10) 0 0 0 0 0
26-03-2020 20 (16:50) 9.3 (00:00) 14.7 10.56 (14:30) 7.22 (14:30) 0.2 0.2 0 0 0
25-03-2020 15.1 (16:20) 9.4 (00:00) 12.3 8.61 (13:00) 5 (12:50) 1.2 0 0 0.2 1
24-03-2020 19 (16:40) 7.8 (00:00) 13.4 6.11 (14:10) 3.33 (14:30) 1.4 1 0.4 0 0
23-03-2020 17 (13:00) 4.2 (00:00) 10.6 9.17 (16:30) 5 (17:30) 3.2 0 0.2 0.4 2.6
22-03-2020 14.6 (16:40) 7 (08:00) 10.8 9.17 (15:10) 3.33 (12:40) 2.2 0.6 0 1.6 0
21-03-2020 15.5 (13:10) 7.1 (00:00) 11.3 11.39 (03:20) 6.39 (00:50) 19.2 12.6 0.2 5.8 0.6
20-03-2020 18.9 (15:50) 10.3 (00:00) 14.6 12.5 (19:30) 6.94 (19:30) 0 0 0 0 0
19-03-2020 17.7 (15:20) 11.4 (00:00) 14.6 11.39 (13:20) 6.94 (13:20) 0 0 0 0 0
18-03-2020 20.8 (15:40) 8 (00:00) 14.4 11.11 (15:50) 6.67 (16:40) 0 0 0 0 0
17-03-2020 16.5 (15:20) 6.1 (00:00) 11.3 10.28 (14:10) 5.56 (14:20) 2.6 2.2 0.2 0 0.2
16-03-2020 13.6 (02:10) 6.1 (00:00) 9.9 11.11 (14:20) 6.39 (15:20) 0 0 0 0 0
15-03-2020 21 (16:20) 10.6 (00:00) 15.8 10.28 (13:20) 6.11 (12:50) 0 0 0 0 0
14-03-2020 22.9 (15:20) 8.1 (00:00) 15.5 6.11 (23:30) 3.61 (16:50) 0 0 0 0 0
13-03-2020 23 (15:30) 7.1 (07:20) 15 7.22 (16:30) 4.17 (16:50) 0 0 0 0 0
12-03-2020 29.3 (15:40) 12.1 (00:00) 20.7 8.61 (12:20) 4.72 (16:30) 0 0 0 0 0
11-03-2020 28.8 (14:40) 8.8 (00:00) 18.8 10.83 (14:30) 5.83 (15:10) 0 0 0 0 0
10-03-2020 25.5 (15:30) 5.4 (00:00) 15.5 7.22 (14:30) 4.72 (23:30) 0 0 0 0 0
09-03-2020 20.2 (15:50) 3.5 (00:00) 11.9 8.33 (16:20) 5 (16:10) 0 0 0 0 0
08-03-2020 23.1 (15:40) 1.7 (00:00) 12.4 8.06 (16:00) 4.44 (16:10) 0 0 0 0 0
07-03-2020 18.1 (15:50) 1.1 (00:00) 9.6 11.39 (17:20) 5.28 (17:20) 0 0 0 0 0
06-03-2020 16.6 (15:50) 5.2 (00:00) 10.9 12.5 (16:30) 6.94 (14:50) 0 0 0 0 0
05-03-2020 16.4 (12:20) 5 (00:00) 10.7 11.11 (12:50) 6.11 (13:20) 0 0 0 0 0

Gráficas

Temp. máximas Temp. mínimas Temp. medias Precipitaciones Rachas de viento máximas Velocidades máximas media en intervalos de 10 minutos

Datos horarios

Fecha y hora oficial Temperatura (ºC) Velocidad del viento (km/h) Dirección del viento Racha (km/h) Dirección de racha Precipitación (mm) Presión (hPa) Tendencia (hPa) Humedad (%)
2020-04-03 23:00:00 11 12 Sur 26 Sur 0 967 0.8 71
2020-04-03 22:00:00 11.5 13 Sur 23 Sur 0 966.5 0.5 64
2020-04-03 21:00:00 12.8 15 Sur 32 Sur 0 966.2 0.3 58
2020-04-03 20:00:00 15 20 Sur -- -- 0 966.2 0.2 50
2020-04-03 19:00:00 16.8 21 Sur 36 Sur 0 966 -0.3 48
2020-04-03 18:00:00 18.4 18 Sur 31 Sudoeste 0 965.9 -1.1 44
2020-04-03 17:00:00 18.9 14 Sur 27 Sudeste 0 966 -1.5 44
2020-04-03 16:00:00 18.7 9 Sudoeste 24 Sur 0 966.3 -1.8 45
2020-04-03 15:00:00 19.2 3 Sudoeste 13 Sudoeste 0 967 -1.4 41
2020-04-03 14:00:00 18.4 4 Sur 13 Sudoeste 0 967.5 -0.6 44
2020-04-03 13:00:00 17.1 8 Nordeste 13 Nordeste 0 968.1 0.4 42
2020-04-03 12:00:00 15.7 3 Sudeste 9 Norte 0 968.4 1 55
2020-04-03 11:00:00 13.4 3 Sudeste 12 Sur 0 968.1 1.3 61
2020-04-03 10:00:00 10.3 5 Sur 9 Sur 0 967.7 1.1 88
2020-04-03 09:00:00 6.1 7 Sur 12 Sur 0 967.4 1 93
2020-04-03 08:00:00 4.6 4 Sur 9 Sur 0 966.8 0.3 92
2020-04-03 07:00:00 5 4 Sudeste 8 Sur 0 966.6 -0.1 91
2020-04-03 06:00:00 5.2 5 Sur 8 Sur 0 966.4 -0.7 91
2020-04-03 05:00:00 6 4 Sur 10 Sur 0 966.5 -0.8 90
2020-04-03 04:00:00 6.4 7 Sur 10 Sur 0 966.7 -0.4 89
2020-04-03 03:00:00 7.5 8 Sur 12 Sur 0 967.1 0.3 89
2020-04-03 02:00:00 7.8 7 Sur 12 Sudoeste 0 967.3 0.8 86
2020-04-03 01:00:00 7.7 7 Sudoeste 12 Sudoeste 0 967.1 1.2 86
2020-04-03 00:00:00 8 6 Sudoeste 15 Oeste 0 966.8 1.7 85
2020-04-02 23:00:00 8.1 5 Sudoeste 9 Noroeste 0 966.5 1.7 83
2020-04-02 22:00:00 9.5 7 Noroeste 13 Oeste 0 965.9 1.7 74
2020-04-02 21:00:00 10.7 6 Noroeste -- -- 0 965.1 1.4 67
2020-04-02 20:00:00 11.9 10 Noroeste 25 Noroeste 0 964.8 1.5 59
2020-04-02 19:00:00 13.2 13 Noroeste 26 Norte 0 964.2 1.1 60
2020-04-02 18:00:00 13.1 17 Oeste 28 Noroeste 0 963.7 0.7 63
2020-04-02 17:00:00 11.1 20 Oeste 32 Noroeste 0 963.3 0.5 73
2020-04-02 16:00:00 13 17 Oeste 35 Oeste 0 963.1 0.6 63
2020-04-02 15:00:00 10.4 18 Oeste 29 Oeste 0.2 963 0.2 66
2020-04-02 14:00:00 10.3 16 Oeste 27 Oeste 0 962.8 0.6 70
2020-04-02 13:00:00 12.2 7 Sur 14 Sudoeste 0 962.5 0.5 57
2020-04-02 12:00:00 11.1 8 Sudoeste 18 Sur 0 962.8 1.1 64
2020-04-02 11:00:00 9.5 9 Sur 21 Sudeste 0 962.2 0.2 71
2020-04-02 10:00:00 7.8 12 Sudeste 24 Sudeste 0 962 -0.1 79
2020-04-02 09:00:00 6.9 10 Sudeste 21 Sur 0.2 961.7 0.4 85
2020-04-02 08:00:00 7.3 11 Sudoeste 27 Sudoeste 0.8 962 0.4 80
2020-04-02 07:00:00 8.5 8 Oeste 15 Oeste 3.8 962.1 -0.7 89
2020-04-02 06:00:00 8.8 5 Sur 13 Sudeste 0.4 961.3 -2.1 88
2020-04-02 05:00:00 8.8 5 Sudeste 8 Sudeste 0.4 961.6 -2.5 89
2020-04-02 04:00:00 9 5 Sur 11 Sudoeste 0.4 962.8 -1.9 86
2020-04-02 03:00:00 8.9 5 Sur 11 Sur 0 963.4 -1.8 85
2020-04-02 02:00:00 9 4 Sur 12 Sur 0 964.1 -1.3 83
2020-04-02 01:00:00 9.1 7 Sudeste 13 Sur 0 964.7 -0.2 82
2020-04-02 00:00:00 9.3 6 Sur 9 Sur 0 965.2 1 80
2020-04-01 23:00:00 10 8 Sudoeste 13 Sudoeste 0 965.4 1.2 78
2020-04-01 22:00:00 10.5 8 Sudoeste 18 Oeste 0 964.9 1.4 71
2020-04-01 21:00:00 10.3 5 Oeste 43 Noroeste 0 964.2 1.1 79
2020-04-01 20:00:00 12.6 15 Oeste 46 Noroeste 0 964.2 1 66
2020-04-01 19:00:00 14.3 16 Noroeste 40 Noroeste 0 963.5 0 62
2020-04-01 18:00:00 16.6 20 Noroeste 33 Noroeste 0 963.1 -0.9 53
2020-04-01 17:00:00 17.1 14 Oeste 31 Sudoeste 0 963.2 -1.1 43
2020-04-01 16:00:00 15.9 18 Oeste 30 Oeste 0 963.5 -1.5 47
2020-04-01 15:00:00 16.1 13 Oeste 26 Oeste 0 964 -1.1 52
2020-04-01 14:00:00 15.1 10 Oeste 24 Oeste 0 964.3 -0.7 53
2020-04-01 13:00:00 14.4 13 Oeste 24 Noroeste 0 965 0.7 61
2020-04-01 12:00:00 12.7 10 Oeste 24 Oeste 0 965.1 1.4 67
2020-04-01 11:00:00 10.9 14 Oeste 22 Oeste 0 965 2.1 79
2020-04-01 10:00:00 10.1 9 Oeste 18 Oeste 0 964.3 1.6 87
2020-04-01 09:00:00 9.5 6 Oeste 13 Oeste 0 963.7 1.3 91
2020-04-01 08:00:00 9.4 6 Oeste 11 Oeste 0 962.9 0.7 91
2020-04-01 07:00:00 9.5 2 Noroeste 4 Sur 0 962.7 0.2 92
2020-04-01 06:00:00 9.4 4 Sur 9 Este 0 962.4 -0.1 91
2020-04-01 05:00:00 9.3 2 Nordeste 10 Sudoeste 0 962.2 -0.4 91
2020-04-01 04:00:00 9.4 5 Oeste 12 Oeste 0 962.5 0.2 89
2020-04-01 03:00:00 10.2 5 Sudoeste 13 Oeste 0 962.5 0.4 88
2020-04-01 02:00:00 10.6 6 Oeste 15 Oeste 1.4 962.6 0.9 89
2020-04-01 01:00:00 11.2 8 Sudoeste 14 Sudoeste 0 962.3 1.3 83
2020-04-01 00:00:00 11.2 7 Sur 14 Sudoeste 0 962.1 2.1 86
2020-03-31 23:00:00 11.1 6 Sudoeste 11 Sudoeste 0 961.7 2.4 87
2020-03-31 22:00:00 11.6 8 Sudoeste 15 Sur 0 961 2.7 85
2020-03-31 21:00:00 11.6 7 Sur 25 Oeste 1 960 1.8 86
2020-03-31 20:00:00 13.2 14 Sudoeste 37 Oeste 0.8 959.3 1.7 76
2020-03-31 19:00:00 13.3 10 Sur 33 Sur 0.8 958.3 1.2 87
2020-03-31 18:00:00 14.1 17 Sur 35 Sur 1 958.2 0.8 84
2020-03-31 17:00:00 13.6 18 Sur 38 Sur 2 957.6 -0.1 85
2020-03-31 16:00:00 15.9 21 Sur 38 Sur 0.6 957.1 -0.4 74
2020-03-31 15:00:00 15.8 13 Sur 39 Sudeste 0 957.4 -0.2 75
2020-03-31 14:00:00 15.6 18 Sur 33 Sudeste 0 957.7 0.2 74
2020-03-31 13:00:00 16 14 Sur 28 Sur 0 957.5 0.4 66
2020-03-31 12:00:00 13.6 12 Sur 21 Sur 0 957.6 0.7 84
2020-03-31 11:00:00 12.2 10 Sur 19 Sur 0.6 957.5 1.4 91
2020-03-31 10:00:00 10.8 13 Sur 21 Sur 2 957.1 1.8 91
2020-03-31 09:00:00 10.5 8 Sudoeste 14 Sur 1.4 956.9 2 91
2020-03-31 08:00:00 10.3 9 Sudoeste 27 Sur 1 956.1 0.4 90
2020-03-31 07:00:00 10.2 15 Sur 30 Sur 0 955.3 -1.3 87
2020-03-31 06:00:00 10.1 19 Sur 38 Sur 0 954.9 -1 87
2020-03-31 05:00:00 10.5 20 Sur 40 Sur 0.4 955.7 -1.3 88
2020-03-31 04:00:00 10.8 14 Sur 31 Sur 4.6 956.6 -1.4 90
2020-03-31 03:00:00 11 16 Sudeste 29 Sur 1.4 955.9 -2.9 91
2020-03-31 02:00:00 10.9 0 Calma 7 Nordeste 0 957 -2.5 92
2020-03-31 01:00:00 10.8 0 Calma 6 Nordeste 0.8 958 -1.5 92
2020-03-31 00:00:00 10.8 4 Norte 13 Este 0.6 958.8 -1.1 92
2020-03-30 23:00:00 10.6 4 Nordeste 18 Nordeste 0.2 959.5 -0.5 91
2020-03-30 22:00:00 10.8 12 Norte 19 Nordeste 0 959.5 -0.4 90
2020-03-30 21:00:00 12.5 5 Oeste 10 Oeste 0 959.9 -0.6 85
2020-03-30 20:00:00 12.8 5 Noroeste 14 Noroeste 0 960 -0.5 83
2020-03-30 19:00:00 13.2 3 Sur 11 Sur 0.6 959.9 -0.8 86
2020-03-30 18:00:00 13 6 Sur 22 Sudoeste 2.6 960.5 -1.3 81
2020-03-30 17:00:00 16 8 Oeste 22 Oeste 0 960.5 -2 60
2020-03-30 16:00:00 17.5 6 Noroeste 16 Noroeste 0 960.7 -2.7 51
2020-03-30 15:00:00 17.2 4 Oeste 11 Norte 0 961.8 -2.4 54
2020-03-30 14:00:00 15.4 7 Norte 14 Noroeste 0 962.5 -2 61
2020-03-30 13:00:00 14.2 11 Norte 19 Norte 0 963.4 -1.1 69
2020-03-30 12:00:00 14.2 3 Norte 12 Norte 0 964.2 -0.4 71
2020-03-30 11:00:00 13.3 4 Oeste 11 Noroeste 0 964.5 0 76
2020-03-30 10:00:00 11.7 3 Oeste 5 Oeste 0 964.5 -0.1 88
2020-03-30 09:00:00 10.9 2 Este 6 Noroeste 0 964.6 -0.2 91
2020-03-30 08:00:00 10.6 3 Oeste 5 Norte 0 964.5 -1.1 91
2020-03-30 07:00:00 10.4 2 Oeste 8 Sudoeste 0 964.6 -1.5 91
2020-03-30 06:00:00 10.1 5 Sudoeste 9 Sudoeste 0 964.8 -1.9 90
2020-03-30 05:00:00 10.9 6 Sudoeste 12 Oeste 0 965.6 -1.3 89
2020-03-30 04:00:00 11.5 6 Oeste 15 Noroeste 0 966.1 -1.3 86
2020-03-30 03:00:00 11.8 7 Oeste 15 Oeste 0 966.7 -0.9 86
2020-03-30 02:00:00 12.8 9 Oeste 13 Oeste 0 966.9 -1 80
2020-03-30 01:00:00 13.4 6 Oeste 14 Oeste 0 967.4 -0.2 77
2020-03-30 00:00:00 13.8 9 Sudoeste 17 Sudoeste 0 967.6 0.3 73
2020-03-29 23:00:00 13.8 7 Sudoeste 14 Sudoeste 0 967.9 0.6 66
2020-03-29 22:00:00 14.5 6 Sudoeste 14 Sur 0 967.6 0.4 58
2020-03-29 21:00:00 15.6 6 Sudoeste 14 Oeste 0 967.3 0 52
2020-03-29 20:00:00 17.1 6 Oeste 14 Noroeste 0 967.3 -0.3 43
2020-03-29 19:00:00 18 5 Sudoeste 11 Sudoeste 0 967.2 -0.9 37
2020-03-29 18:00:00 18.4 5 Oeste 13 Sudoeste 0 967.3 -1.6 36
2020-03-29 17:00:00 18.4 5 Sur 16 Noroeste 0 967.6 -1.9 35
2020-03-29 16:00:00 19.2 4 Sudeste 13 Sur 0 968.1 -1.8 32
2020-03-29 15:00:00 18 6 Sur 13 Sur 0 968.9 -1.4 42
2020-03-29 14:00:00 19.4 5 Sudoeste 12 Sudoeste 0 969.5 -0.9 40
2020-03-29 13:00:00 17.4 5 Nordeste 13 Nordeste 0 969.9 -0.5 47
2020-03-29 12:00:00 14.9 4 Oeste 10 Sur 0 970.3 0.2 58
2020-03-29 11:00:00 13.7 4 Sur 11 Sur 0 970.4 0.7 67
2020-03-29 10:00:00 10.5 7 Sur 10 Sur 0 970.4 0.8 87
2020-03-29 09:00:00 7.2 6 Sur 8 Sur 0 970.1 0.4 90
2020-03-29 08:00:00 7.2 6 Sur 9 Sur 0 969.7 -0.2 88
2020-03-29 07:00:00 8.6 3 Sudoeste 8 Sudoeste 0 969.6 -0.7 87
2020-03-29 06:00:00 9.1 3 Sudoeste 16 Sur 0 969.7 -1 87
2020-03-29 05:00:00 9.5 8 Sur 14 Sur 0 969.9 -0.8 86
2020-03-29 03:00:00 9.8 10 Sur -- -- -- 970.7 0.3 85
2020-03-29 01:00:00 9.8 10 Sur 19 Sur 0 970.7 0.8 84
2020-03-29 00:00:00 9.8 10 Sur 22 Sur 0 970.7 1.5 82
2020-03-28 23:00:00 10 13 Sur 21 Sudoeste 0 970.4 1.8 81
2020-03-28 22:00:00 10 10 Sur 19 Sur 0 969.9 1.8 78
2020-03-28 21:00:00 10.5 12 Sur 23 Sur 0 969.2 1.7 76
2020-03-28 20:00:00 11.6 12 Sur 29 Sudoeste 0 968.6 1.6 69
2020-03-28 19:00:00 13.7 14 Sur 27 Sur 0 968.1 1.1 61
2020-03-28 18:00:00 15.2 18 Sudoeste 32 Sur 0 967.5 0.1 57
2020-03-28 17:00:00 15.8 17 Sur 30 Sur 0 967 -0.4 56
2020-03-28 16:00:00 16.7 16 Sur 32 Sur 0 967 -0.4 56
2020-03-28 15:00:00 15.6 18 Sur 33 Sur 0 967.4 -0.1 60
2020-03-28 14:00:00 17.7 18 Sur 30 Sudoeste 0 967.4 0 52
2020-03-28 13:00:00 17.4 13 Sur 27 Sur 0 967.4 0.4 51
2020-03-28 12:00:00 16.9 11 Sur 25 Sur 0 967.5 1 54
2020-03-28 11:00:00 14.5 10 Sudeste 17 Sur 0 967.4 1.4 64
2020-03-28 10:00:00 12.8 8 Sudeste 15 Sur 0 967 1.7 76
2020-03-28 09:00:00 8.8 3 Noroeste 6 Oeste 0 966.5 1.6 93
2020-03-28 08:00:00 5.4 2 Oeste 7 Sur 0 966 1.5 92
2020-03-28 07:00:00 4.3 3 Sudeste 7 Sur 0 965.3 0.9 91
2020-03-28 06:00:00 5 7 Sur 9 Sur 0 964.9 0.3 91
2020-03-28 05:00:00 5.5 2 Sudoeste 6 Sur 0 964.5 -0.2 90
2020-03-28 04:00:00 6.3 7 Sur 9 Sur 0 964.4 -0.2 90
2020-03-28 03:00:00 6.5 4 Sur 8 Sur 0 964.6 0 88
2020-03-28 02:00:00 8.1 0 Calma 6 Sur 0 964.7 0.6 86
2020-03-28 01:00:00 10.5 3 Sur 8 Nordeste 0 964.6 1 84
2020-03-28 00:00:00 10.5 3 Este 11 Sur 0 964.6 1.7 84
2020-03-27 23:00:00 10.4 4 Sudoeste 12 Sudoeste 0 964.1 2.1 85
2020-03-27 22:00:00 9.9 7 Sur 14 Sudoeste 0 963.6 2.1 84
2020-03-27 21:00:00 11 11 Sudoeste 22 Sudoeste 0 962.9 2 79
2020-03-27 20:00:00 11.9 11 Sudoeste 23 Sudoeste 0 962 1.6 75
2020-03-27 19:00:00 13.5 12 Sudoeste 27 Sur 0 961.5 1.2 66
2020-03-27 18:00:00 14.9 13 Sudoeste 32 Sudoeste 0 960.9 0.4 61
2020-03-27 17:00:00 16.6 15 Sur 33 Sur 0 960.4 -0.4 55
2020-03-27 16:00:00 17.2 18 Sur 35 Sur 0 960.3 -0.8 53
2020-03-27 15:00:00 17 18 Sur 33 Sur 0 960.5 -1.3 52
2020-03-27 14:00:00 18.1 15 Sudoeste 30 Sur 0 960.8 -0.7 45
2020-03-27 13:00:00 16.3 12 Sur 34 Sudeste 0 961.1 0 54
2020-03-27 12:00:00 14.4 9 Sudoeste 31 Sur 0 961.8 1.4 58
2020-03-27 11:00:00 15.1 18 Sur 36 Sur 0 961.5 1.4 59
2020-03-27 10:00:00 13.8 20 Sur 35 Sur 0 961.1 1.4 64
2020-03-27 09:00:00 12 14 Sur 27 Sur 0 960.4 0.8 82
2020-03-27 08:00:00 8.8 10 Sudoeste 18 Sudoeste 0 960.1 0.4 90
2020-03-27 07:00:00 8 12 Sudoeste 23 Sudoeste 0 959.7 -0.4 88
2020-03-27 06:00:00 6.9 12 Sur 16 Sur 0 959.6 -1.1 90
2020-03-27 05:00:00 7.7 10 Sur 17 Sur 0 959.7 -1.4 89
2020-03-27 04:00:00 8.2 7 Sur 12 Sur 0 960.1 -1.2 88
2020-03-27 03:00:00 8.5 5 Sur 13 Sur 0 960.7 -0.8 85
2020-03-27 02:00:00 9.4 6 Sur 11 Sudeste 0 961.1 -0.4 81
2020-03-27 01:00:00 11.1 3 Oeste 20 Oeste 0 961.3 -0.3 76
2020-03-27 00:00:00 11.5 10 Oeste 21 Oeste 0 961.5 0.3 75
2020-03-26 23:00:00 12 13 Oeste 24 Oeste 0 961.5 1.1 73
2020-03-26 22:00:00 12.7 11 Oeste 23 Oeste 0 961.6 1.3 70
2020-03-26 21:00:00 13.4 11 Oeste 22 Oeste 0 961.2 1 70
2020-03-26 20:00:00 14.8 12 Oeste 33 Oeste 0 960.4 -0.1 62
2020-03-26 19:00:00 17.2 14 Oeste 35 Oeste 0 960.3 -0.5 49
2020-03-26 18:00:00 18.8 20 Oeste 34 Oeste 0 960.2 -1.1 39
2020-03-26 17:00:00 19.8 17 Oeste -- -- 0 960.5 -1.3 37
2020-03-26 16:00:00 19.4 21 Oeste 37 Oeste 0 960.8 -2 44
2020-03-26 15:00:00 19.3 22 Oeste 38 Oeste 0 961.3 -2.1 52
2020-03-26 14:00:00 18.4 21 Oeste 36 Oeste 0 961.8 -2.1 56
2020-03-26 13:00:00 16.4 14 Noroeste 30 Oeste 0 962.8 -1 60
2020-03-26 12:00:00 15.2 14 Oeste 30 Noroeste 0 963.4 -0.3 69
2020-03-26 11:00:00 13.9 12 Oeste 26 Oeste 0 963.9 0.3 76
2020-03-26 10:00:00 12.6 14 Noroeste 21 Noroeste 0 963.8 0.2 80
2020-03-26 09:00:00 12 5 Oeste 11 Oeste 0 963.7 0 84
2020-03-26 08:00:00 11 9 Noroeste 24 Oeste 0 963.6 -0.3 86
2020-03-26 07:00:00 11.2 7 Oeste 14 Oeste 0 963.6 -1.1 86
2020-03-26 06:00:00 11.1 9 Oeste 14 Sudoeste 0 963.7 -1.7 86
2020-03-26 05:00:00 10.4 8 Sur 14 Sudeste 0 963.9 -2.3 88
2020-03-26 04:00:00 9.9 7 Sur 13 Sur 0.2 964.7 -1.8 89
2020-03-26 03:00:00 9.4 8 Sur 12 Sur 0 965.4 -1.5 90
2020-03-26 02:00:00 9.7 5 Sur 18 Sur 0 966.2 -0.8 90
2020-03-26 01:00:00 9.5 10 Sur 17 Sur 0 966.5 -0.6 90
2020-03-26 00:00:00 9.4 12 Sur 26 Sur 0 966.9 0 90
2020-03-25 23:00:00 9.4 15 Sur 27 Sur 0 967 1 90
2020-03-25 22:00:00 9.9 14 Sur 23 Sur 0 967.1 1 90
2020-03-25 21:00:00 10.2 10 Sur 27 Sudoeste 0 966.9 0.7 89
2020-03-25 20:00:00 10.9 18 Sudoeste 27 Sur 1 966 -0.5 87
2020-03-25 19:00:00 12.7 16 Sur 26 Sur 0 966.1 -0.8 76
2020-03-25 18:00:00 14.4 15 Sur 24 Sur 0 966.2 -1.1 68
2020-03-25 17:00:00 15 15 Sur 27 Sur 0 966.5 -1.4 68
2020-03-25 16:00:00 14.6 15 Sur 29 Sur 0 966.9 -1.3 67
2020-03-25 15:00:00 13.6 16 Sur 29 Sur 0 967.3 -0.8 70
2020-03-25 14:00:00 10.9 16 Sur 31 Sur 0 967.9 0 83
2020-03-25 13:00:00 10.2 17 Sur 31 Sur 0.2 968.2 1 86
2020-03-25 12:00:00 10.8 15 Sur 26 Sur 0 968.1 1.1 85
2020-03-25 11:00:00 11.3 13 Sur 22 Sur 0 967.9 1.4 84
2020-03-25 10:00:00 12.2 10 Oeste 20 Oeste 0 967.2 1.3 88
2020-03-25 09:00:00 11.4 5 Oeste 20 Oeste 0 967 1.4 91
2020-03-25 08:00:00 11.1 9 Oeste 19 Oeste 0 966.5 1.3 91
2020-03-25 07:00:00 11.2 8 Oeste 16 Oeste 0 965.9 0.9 90
2020-03-25 06:00:00 11 8 Oeste 15 Oeste 0 965.6 0.5 91
2020-03-25 05:00:00 10.6 5 Oeste 9 Oeste 0 965.2 0 91
2020-03-25 04:00:00 10.3 6 Sudoeste 9 Sudoeste 0 965 -0.1 90
2020-03-25 03:00:00 10.6 5 Sur 9 Sur 0 965.1 0.2 89
2020-03-25 02:00:00 11.3 6 Sudoeste 12 Sudoeste 0 965.2 0.6 89
2020-03-25 01:00:00 11.3 5 Este 9 Este 0 965.1 1.3 90
2020-03-25 00:00:00 11.2 2 Sur 6 Este 0 964.9 1.9 89
2020-03-24 23:00:00 11.4 5 Este 11 Sur 0 964.6 2.6 88
2020-03-24 22:00:00 10.4 6 Sur 11 Este 0 963.8 2.6 85
2020-03-24 21:00:00 11.1 5 Sur 8 Sudeste 0 963 2.5 85
2020-03-24 20:00:00 13.4 5 Sudeste 12 Sur 0 962 1.9 79
2020-03-24 19:00:00 15.4 6 Sudeste 19 Sudeste 0 961.2 1.1 72
2020-03-24 18:00:00 18.1 10 Nordeste 18 Nordeste 0 960.5 0.2 44
2020-03-24 17:00:00 18.2 6 Nordeste 12 Norte 0 960.1 -0.5 48
2020-03-24 16:00:00 18.2 6 Norte 14 Norte 0 960.1 -1 51
2020-03-24 15:00:00 17.2 11 Noroeste 22 Norte 0 960.3 -0.8 54
2020-03-24 14:00:00 18.4 10 Noroeste 20 Norte 0 960.6 -0.3 53
2020-03-24 13:00:00 16.7 11 Norte 18 Norte 0 961.1 0.5 56
2020-03-24 12:00:00 15.3 9 Norte 18 Norte 0 961.1 0.6 61
2020-03-24 11:00:00 13.9 10 Nordeste 19 Norte 0 960.9 0.5 65
2020-03-24 10:00:00 11.6 4 Norte 11 Noroeste 0 960.6 0.4 82
2020-03-24 09:00:00 9.6 3 Nordeste 6 Norte 0 960.5 0.2 92
2020-03-24 08:00:00 8.6 0 Calma 3 Este 0 960.4 0.3 92
2020-03-24 07:00:00 8.6 2 Sur 4 Sur 0.4 960.2 -0.4 92
2020-03-24 06:00:00 8.3 2 Nordeste 9 Sur 0 960.3 -0.8 92
2020-03-24 05:00:00 8.3 0 Calma 4 Norte 0 960.1 -1.7 92
2020-03-24 04:00:00 8.5 0 Calma 6 Nordeste 0.2 960.6 -1.9 92
2020-03-24 03:00:00 8.9 2 Nordeste 9 Norte 0.2 961.1 -1.5 92
2020-03-24 02:00:00 8.6 4 Norte 6 Norte 0.6 961.8 -1.1 92
2020-03-24 01:00:00 8.3 2 Sudeste 5 Nordeste 0 962.5 -0.3 91
2020-03-24 00:00:00 8.1 0 Calma 7 Nordeste 0 962.6 -0.4 90
2020-03-23 23:00:00 8.7 4 Norte 15 Este 0 962.9 0.1 90
2020-03-23 22:00:00 9.1 7 Norte 14 Norte 1 962.8 0.1 91
2020-03-23 21:00:00 9.1 4 Nordeste 11 Sudeste 1.4 963 0.6 89
2020-03-23 20:00:00 9.4 4 Sur 16 Sudeste 0.2 962.8 0.3 87
2020-03-23 19:00:00 10.1 11 Sur 18 Sur 0 962.7 0.6 79
2020-03-23 18:00:00 10.4 7 Este 31 Sudeste 0.2 962.4 0 81
2020-03-23 17:00:00 10 10 Sudeste 33 Sudeste 0.2 962.5 -0.1 82
2020-03-23 16:00:00 13 13 Sur 30 Sudeste 0 962.1 -1.4 64
2020-03-23 15:00:00 15.1 13 Sudeste 25 Sudeste 0 962.4 -1.5 48
2020-03-23 14:00:00 15.7 10 Sur 21 Sur 0 962.6 -1.7 48
2020-03-23 13:00:00 16.9 9 Sur 18 Sur 0 963.5 -1.1 48
2020-03-23 12:00:00 14.7 6 Sur 17 Este 0 963.9 -0.2 50
2020-03-23 11:00:00 13.8 4 Sur 14 Sudeste 0 964.3 0.5 58
2020-03-23 10:00:00 10.9 5 Sur 10 Sudoeste 0 964.6 1.1 79
2020-03-23 09:00:00 7.7 5 Sur 14 Sur 0 964.1 1 93
2020-03-23 08:00:00 5.2 7 Sur 10 Sur 0 963.8 0.6 92
2020-03-23 07:00:00 4.9 2 Sudeste 8 Sur 0.2 963.5 0.3 92
2020-03-23 06:00:00 5.7 2 Sudeste 10 Sur 0 963.1 -0.5 92
2020-03-23 05:00:00 5.9 3 Sur 9 Sur 0 963.2 -0.6 92
2020-03-23 04:00:00 6 7 Sur 10 Sur 0 963.2 -0.9 91
2020-03-23 03:00:00 6.2 4 Sur 11 Sur 0 963.6 -0.4 91
2020-03-23 02:00:00 6 5 Sur 8 Sur 0 963.8 -0.5 90
2020-03-23 01:00:00 6.4 4 Sudeste 9 Sur 0 964.1 0.2 90
2020-03-23 00:00:00 7.2 6 Sur 13 Sur 0 964 0.5 89
2020-03-22 23:00:00 7.7 7 Sur 12 Sur 0 964.3 1.2 89
2020-03-22 22:00:00 8.2 6 Sur 9 Sur 0 963.9 1.4 88
2020-03-22 21:00:00 9.2 6 Sur 9 Sur 0 963.5 1.5 83
2020-03-22 20:00:00 11.4 5 Sudoeste 9 Oeste 0 963.1 1.5 70
2020-03-22 19:00:00 12.5 4 Sudoeste 17 Oeste 0 962.5 0.9 61
2020-03-22 18:00:00 12.9 10 Oeste 22 Sudoeste 0 962 -0.1 61
2020-03-22 17:00:00 14.2 11 Oeste 22 Oeste 0 961.6 -0.6 54
2020-03-22 16:00:00 13.2 10 Oeste 33 Sudoeste 0.2 961.6 -0.9 61
2020-03-22 15:00:00 11.9 12 Oeste 20 Noroeste 0 962.1 -0.5 71
2020-03-22 14:00:00 10.6 7 Norte 15 Norte 0.8 962.2 -0.3 79
2020-03-22 13:00:00 10.1 11 Norte 19 Norte 0.6 962.5 0.2 80
2020-03-22 12:00:00 12.5 6 Sudoeste 17 Sudoeste 0 962.6 0.8 61
2020-03-22 11:00:00 11.9 4 Sur 12 Sudoeste 0 962.5 1.1 65
2020-03-22 10:00:00 10.1 5 Sudoeste 10 Sudoeste 0 962.3 1.1 81
2020-03-22 09:00:00 8.6 3 Sur 6 Sur 0 961.8 0.7 91
2020-03-22 08:00:00 7 4 Sur 6 Sudeste 0 961.4 0.4 90
2020-03-22 07:00:00 8 4 Sudeste 7 Sur 0 961.2 0.1 91
2020-03-22 06:00:00 8.1 2 Sur 6 Sudeste 0 961.1 -0.3 91
2020-03-22 05:00:00 8.3 4 Sudeste 13 Sudeste 0.2 961 -0.9 91
2020-03-22 04:00:00 8.5 8 Sur 12 Sur 0 961.1 -1.3 91
2020-03-22 03:00:00 8 6 Sur 9 Sur 0.2 961.4 -1.5 91
2020-03-22 02:00:00 7.9 4 Sur 9 Sur 0 961.9 -1.2 91
2020-03-22 01:00:00 7.9 4 Sudoeste 12 Sur 0.2 962.4 -0.8 91
2020-03-22 00:00:00 7.3 4 Sudoeste 5 Sur 0 962.9 -0.4 90
2020-03-21 23:00:00 7.5 3 Sur 13 Sudeste 0 963.1 0.7 88
2020-03-21 22:00:00 7.9 5 Sur 14 Sur 0.2 963.2 1.2 87
2020-03-21 21:00:00 8.7 9 Oeste 28 Sur 0 963.3 1.7 84
2020-03-21 20:00:00 9.1 13 Sur 28 Sur 0.4 962.4 0 80
2020-03-21 19:00:00 10.6 15 Sur 27 Sur 0 962 -0.8 79
2020-03-21 18:00:00 10.5 11 Sur 32 Sur 0.4 961.6 -1.5 86
2020-03-21 17:00:00 9.7 13 Sur 28 Sur 0.8 962.4 -1 82
2020-03-21 16:00:00 10.7 10 Sur 27 Sudoeste 0.8 962.8 -1.2 81
2020-03-21 15:00:00 10.5 9 Sudoeste 36 Sudoeste 3.4 963.1 -1.6 82
2020-03-21 14:00:00 13.3 9 Sudoeste 25 Oeste 0.4 963.4 -1.7 73
2020-03-21 13:00:00 14.1 12 Sur 27 Sur 0 964 -1.1 55
2020-03-21 12:00:00 14.4 10 Sudeste 24 Sudoeste 0 964.7 -0.4 52
2020-03-21 11:00:00 12.4 9 Sudoeste 21 Sur 0 965.1 0.3 64
2020-03-21 10:00:00 11.6 8 Sur 14 Sur 0.2 965.1 0.7 68
2020-03-21 09:00:00 9.3 5 Sudeste 9 Sur 0 965.1 0.7 91
2020-03-21 08:00:00 7.6 6 Sur 12 Sur 0 964.8 0.5 90
2020-03-21 07:00:00 8.1 5 Sur 8 Este 0 964.4 0 89
2020-03-21 06:00:00 9 5 Sudeste 10 Sudeste 0.8 964.4 0.5 90
2020-03-21 05:00:00 8.9 4 Sur 19 Sudoeste 3.8 964.3 1 88
2020-03-21 04:00:00 9.2 13 Oeste 41 Sudoeste 7.6 964.4 0.9 88
2020-03-21 03:00:00 11.8 11 Sudoeste 27 Sudeste 0.4 963.9 -0.5 81
2020-03-21 02:00:00 12.9 16 Sudeste 39 Sudeste 0 963.3 -1.2 70
2020-03-21 01:00:00 12.9 22 Sudeste 38 Sudeste 0 963.5 -1 70
2020-03-21 00:00:00 12.6 10 Sur 30 Sur 0 964.4 -0.4 75
2020-03-20 23:00:00 12.6 18 Sur 35 Sur 0 964.5 0.2 73
2020-03-20 22:00:00 12.8 20 Sur 32 Sur 0 964.5 0.6 74
2020-03-20 21:00:00 12.8 18 Sur 41 Sur 0 964.8 1.2 74
2020-03-20 20:00:00 13.2 22 Sur 45 Sur 0 964.3 0.2 73
2020-03-20 19:00:00 15.7 19 Sur 33 Sur 0 963.9 -0.5 52
2020-03-20 18:00:00 17.5 17 Sur 32 Sur 0 963.6 -1.6 47
2020-03-20 17:00:00 17.7 15 Sur 33 Sur 0 964.1 -1.8 47
2020-03-20 16:00:00 18.4 13 Sur 31 Sur 0 964.4 -1.9 46
2020-03-20 15:00:00 17.7 12 Sur 33 Sur 0 965.2 -1.2 50
2020-03-20 14:00:00 16.9 22 Sur 39 Sur 0 965.9 -0.4 54
2020-03-20 13:00:00 16.5 20 Sur 33 Sur 0 966.3 -0.1 52
2020-03-20 12:00:00 15.8 22 Sur 37 Sur 0 966.4 0.3 54
2020-03-20 11:00:00 15 20 Sur 37 Sudeste 0 966.3 0.6 63
2020-03-20 10:00:00 12.8 21 Sur 37 Sur 0 966.4 0.9 75
2020-03-20 09:00:00 12.4 14 Sur 27 Sudeste 0 966.1 0.4 77
2020-03-20 08:00:00 11.1 11 Sur 22 Sudeste 0 965.7 0.3 81
2020-03-20 07:00:00 10.6 10 Sudeste 20 Sudeste 0 965.5 -0.3 79
2020-03-20 06:00:00 10.3 8 Sur 24 Sur 0 965.7 -0.5 80
2020-03-20 05:00:00 10.8 14 Sur 24 Sur 0 965.4 -1 77
2020-03-20 04:00:00 10.9 9 Sudeste 17 Sur 0 965.8 -0.9 77
2020-03-20 03:00:00 11.7 11 Sur 23 Sur 0 966.2 -0.5 77
2020-03-20 02:00:00 12.3 13 Sur 34 Sur 0 966.4 -0.5 78
2020-03-20 01:00:00 12.6 17 Sur 36 Sur 0 966.7 -0.1 78
2020-03-20 00:00:00 12.4 16 Sur 28 Sur 0 966.7 0.1 79
2020-03-19 23:00:00 12.4 15 Sur 36 Sur 0 966.9 0.6 78
2020-03-19 22:00:00 12.5 22 Sur 37 Sur 0 966.8 0.6 76
2020-03-19 21:00:00 12.6 14 Sur 28 Sur 0 966.6 0.4 74
2020-03-19 20:00:00 13.3 13 Sur 31 Sur 0 966.3 -0.2 69
2020-03-19 19:00:00 14.3 19 Sur 37 Sur 0 966.2 -0.7 64
2020-03-19 18:00:00 15.2 23 Sur 41 Sudeste 0 966.2 -1.3 62
2020-03-19 17:00:00 16.5 21 Sur 37 Sur 0 966.5 -1.7 57
2020-03-19 16:00:00 16.3 19 Sur 38 Sur 0 966.9 -2.1 57
2020-03-19 15:00:00 17.2 18 Sur 36 Sudeste 0 967.5 -1.9 55
2020-03-19 14:00:00 17 20 Sur 41 Sur 0 968.2 -1.6 56
2020-03-19 13:00:00 16.8 23 Sudeste 37 Sudeste 0 969 -1 57
2020-03-19 12:00:00 16.8 15 Sudeste 32 Sur 0 969.4 -0.3 59
2020-03-19 11:00:00 14.7 14 Sudeste 24 Sur 0 969.8 0.2 65
2020-03-19 10:00:00 13 9 Sudeste 16 Sudeste 0 970 0.3 74
2020-03-19 09:00:00 11.9 9 Sudeste 15 Sudeste 0 969.7 0.2 79
2020-03-19 08:00:00 11.6 12 Sudeste 21 Sudeste 0 969.6 -0.1 80
2020-03-19 07:00:00 11.6 11 Sudeste 21 Sudeste 0 969.7 -0.4 80
2020-03-19 06:00:00 11.5 10 Sudeste 16 Sudeste 0 969.5 -0.6 79
2020-03-19 05:00:00 11.7 6 Sur 26 Sur 0 969.7 -0.6 78
2020-03-19 04:00:00 12.3 13 Sur 30 Sur 0 970.1 -0.2 76
2020-03-19 03:00:00 12.4 18 Sur 34 Sur 0 970.1 -0.5 77
2020-03-19 02:00:00 12.6 14 Sur 32 Sur 0 970.3 -0.6 78
2020-03-19 01:00:00 12.8 16 Sur 37 Sudeste 0 970.3 -0.3 78
2020-03-19 00:00:00 12.8 17 Sur 29 Sudeste 0 970.6 0.7 79
2020-03-18 23:00:00 12.7 15 Sur 28 Sur 0 970.9 1.5 78
2020-03-18 22:00:00 12.7 14 Sur 29 Sur 0 970.6 1.4 76
2020-03-18 21:00:00 13.2 14 Sur 26 Sur 0 969.9 0.9 69
2020-03-18 20:00:00 14.5 12 Sur 31 Sur 0 969.4 0.5 62
2020-03-18 19:00:00 16.1 17 Sur 29 Sur 0 969.2 -0.1 58
2020-03-18 18:00:00 17.7 18 Sur 38 Sur 0 969 -0.8 51
2020-03-18 17:00:00 19.6 22 Sur 39 Sur 0 968.9 -1.7 45
2020-03-18 16:00:00 20.4 21 Sur 40 Sur 0 969.3 -1.6 44
2020-03-18 15:00:00 20.3 22 Sur 36 Sur 0 969.8 -1.5 47
2020-03-18 14:00:00 19.8 19 Sur 36 Sur 0 970.6 -0.8 49
2020-03-18 13:00:00 18.9 17 Sur 34 Sur 0 970.9 -0.1 53
2020-03-18 12:00:00 17.6 17 Sur 36 Sur 0 971.3 1 59
2020-03-18 11:00:00 16.5 18 Sur 27 Sudeste 0 971.4 1.4 65
2020-03-18 10:00:00 14.6 13 Sur 24 Sudeste 0 971 1.3 74
2020-03-18 09:00:00 13 10 Sudeste 20 Sudeste 0 970.3 0.8 83
2020-03-18 08:00:00 11 12 Sudeste 23 Sudeste 0 970 0.9 88
2020-03-18 07:00:00 9.4 9 Sur 14 Sudeste 0 969.7 0.2 92
2020-03-18 06:00:00 8.8 6 Sur 13 Sur 0 969.5 -0.6 92
2020-03-18 05:00:00 8.1 5 Sur 8 Sur 0 969.1 -1.3 91
2020-03-18 04:00:00 8.9 4 Norte 12 Sur 0 969.5 -0.7 90
2020-03-18 03:00:00 8.7 2 Oeste 10 Sur 0 970.1 -0.5 89
2020-03-18 02:00:00 9.3 7 Sur 13 Sudeste 0 970.4 0.9 89
2020-03-18 01:00:00 8.5 7 Sur 17 Sur 0 970.2 0 87
2020-03-18 00:00:00 8.4 13 Sur 19 Sur 0 970.6 0.1 88
2020-03-17 23:00:00 7.9 6 Sur 8 Sur 0 969.5 -1 86
2020-03-17 22:00:00 8 5 Sur 9 Sur 0 970.2 0.1 83
2020-03-17 21:00:00 10 5 Sur 13 Sudoeste 0 970.5 0.7 75
2020-03-17 20:00:00 12.5 8 Sur 11 Sudoeste 0 970.5 0.8 63
2020-03-17 19:00:00 13.7 4 Sudoeste 10 Norte 0.2 970.1 0.1 62
2020-03-17 18:00:00 14.9 5 Sudeste 20 Este 0 969.8 -0.2 47
2020-03-17 17:00:00 15.6 10 Sudeste 26 Sudeste 0 969.7 -0.8 39
2020-03-17 16:00:00 15.9 14 Sudeste 34 Sudeste 0 970 -0.7 36
2020-03-17 15:00:00 15.4 17 Sudeste 37 Sudeste 0 970 -1.2 36
2020-03-17 14:00:00 16.1 18 Este 32 Sudeste 0 970.5 -0.2 40
2020-03-17 13:00:00 13.3 11 Sudeste 24 Sudeste 0 970.7 0.1 55
2020-03-17 12:00:00 10.9 11 Sudeste 34 Sudeste 0 971.2 1.4 67
2020-03-17 11:00:00 10.2 9 Este 24 Este 0 970.7 1.7 81
2020-03-17 10:00:00 7.5 8 Nordeste 12 Nordeste 0 970.6 2.2 86
2020-03-17 09:00:00 6.8 6 Nordeste 9 Nordeste 0.2 969.8 2.1 89
2020-03-17 08:00:00 6.4 4 Nordeste 9 Nordeste 0 969 1.8 90
2020-03-17 07:00:00 6.3 3 Norte 8 Norte 0 968.4 1.2 88
2020-03-17 06:00:00 6.5 4 Oeste 6 Oeste 0 967.7 0.1 88
2020-03-17 05:00:00 6.5 2 Sur 11 Oeste 1.8 967.2 -0.3 86
2020-03-17 04:00:00 6.6 6 Sudoeste 8 Oeste 0.4 967.2 -0.3 84
2020-03-17 03:00:00 6.5 4 Sudoeste 7 Sur 0 967.6 0.1 80
2020-03-17 02:00:00 6.7 5 Oeste 8 Sur 0 967.5 -0.2 79
2020-03-17 01:00:00 6.4 5 Sudeste 11 Sur 0 967.5 -0.1 80
2020-03-17 00:00:00 6.1 3 Sur 8 Sudoeste 0 967.5 0.6 83
2020-03-16 23:00:00 6.7 5 Sur 16 Oeste 0 967.7 1.6 78
2020-03-16 22:00:00 8 10 Oeste 16 Oeste 0 967.6 2.1 70
2020-03-16 21:00:00 8.9 9 Noroeste 18 Noroeste 0 966.9 1.8 59
2020-03-16 20:00:00 9 3 Nordeste 29 Norte 0 966.1 0.9 62
2020-03-16 19:00:00 10.2 17 Noroeste 33 Noroeste 0 965.5 0.2 48
2020-03-16 18:00:00 11.3 17 Oeste 30 Oeste 0 965.1 -0.2 40
2020-03-16 17:00:00 11.9 17 Oeste 36 Oeste 0 965.2 -0.5 39
2020-03-16 16:00:00 12.1 20 Oeste 40 Oeste 0 965.3 -0.7 37
2020-03-16 15:00:00 12.3 19 Noroeste 40 Noroeste 0 965.3 -0.8 37
2020-03-16 14:00:00 12.7 18 Noroeste 38 Noroeste 0 965.7 -0.7 35
2020-03-16 13:00:00 12.3 19 Oeste 31 Noroeste 0 966 -0.8 37
2020-03-16 12:00:00 12.2 15 Noroeste 28 Noroeste 0 966.1 -0.7 37
2020-03-16 11:00:00 10.5 7 Oeste 24 Norte 0 966.4 -0.1 46
2020-03-16 10:00:00 9 12 Norte 24 Norte 0 966.8 0.9 47
2020-03-16 09:00:00 7.8 10 Norte 17 Norte 0 966.8 1.6 50
2020-03-16 08:00:00 7.9 8 Noroeste 23 Noroeste 0 966.5 2 55
2020-03-16 07:00:00 8.3 13 Noroeste 21 Noroeste 0 965.9 1.6 55
2020-03-16 06:00:00 8.8 15 Norte 26 Norte 0 965.2 0.7 58
2020-03-16 05:00:00 9.8 13 Noroeste 27 Noroeste 0 964.5 -0.4 65
2020-03-16 04:00:00 11.3 19 Oeste 32 Oeste 0 964.3 -0.9 79
2020-03-16 03:00:00 13.3 9 Sudoeste 25 Oeste 0 964.5 -1.1 77
2020-03-16 02:00:00 13.5 12 Sudoeste 19 Oeste 0 964.9 -1 78
2020-03-16 01:00:00 13.1 10 Sudoeste 17 Oeste 0 965.2 -0.8 84
2020-03-16 00:00:00 11.8 8 Sur 18 Sur 0 965.6 0.3 82
2020-03-15 23:00:00 12.9 13 Sur 18 Sudoeste 0 965.9 1.3 77
2020-03-15 22:00:00 14.1 10 Sur 23 Sur 0 966 1.3 70
2020-03-15 21:00:00 14.6 15 Sur 24 Sur 0 965.3 0.2 68
2020-03-15 20:00:00 15.3 10 Sur 22 Sur 0 964.6 -1.1 62
2020-03-15 19:00:00 18 15 Sur 27 Sur 0 964.7 -1.1 52
2020-03-15 18:00:00 19.7 12 Sur -- -- 0 965.1 -1.3 47
2020-03-15 17:00:00 19.6 11 Sur 22 Sur 0 965.7 -1.5 45
2020-03-15 16:00:00 20.6 15 Sur 27 Sur 0 965.8 -2 43
2020-03-15 15:00:00 19.7 18 Sur 32 Sur 0 966.4 -1.9 47
2020-03-15 14:00:00 17.5 16 Sur 37 Sur 0 967.2 -1.5 60
2020-03-15 13:00:00 16.3 21 Sur 35 Sur 0 967.8 -0.7 63
2020-03-15 12:00:00 16.5 14 Sur 28 Sur 0 968.3 0.3 61
2020-03-15 11:00:00 15.6 14 Sur 32 Sur 0 968.7 0.8 67
2020-03-15 10:00:00 14.3 18 Sur 30 Sur 0 968.5 0.7 74
2020-03-15 09:00:00 12.8 14 Sur 26 Sur 0 968 0.2 82
2020-03-15 08:00:00 11 12 Sur 21 Sur 0 967.9 0 88
2020-03-15 07:00:00 10.9 6 Sur 21 Sur 0 967.8 -0.3 89
2020-03-15 06:00:00 11.2 12 Sur 23 Sur 0 967.8 -0.6 88
2020-03-15 05:00:00 11.5 16 Sur 29 Sur 0 967.9 -0.9 87
2020-03-15 04:00:00 10.6 14 Sur 27 Sur 0 968.1 -1 86
2020-03-15 03:00:00 10.6 15 Sur 25 Sur 0 968.4 -1.1 81
2020-03-15 02:00:00 11.2 14 Sur 23 Sur 0 968.8 -0.7 77
2020-03-15 01:00:00 11.8 13 Sur 23 Sur 0 969.1 -0.1 77
2020-03-15 00:00:00 12.2 10 Sur 22 Sur 0 969.5 0.6 75
2020-03-14 23:00:00 13.1 12 Sur 22 Sur 0 969.5 0.8 72
2020-03-14 22:00:00 13.8 11 Sur 16 Sur 0 969.2 0.8 68
2020-03-14 21:00:00 15.3 10 Sur 17 Sudoeste 0 968.9 0.5 61
2020-03-14 20:00:00 17.5 9 Sur 14 Sur 0 968.7 0.3 53
2020-03-14 19:00:00 20.9 5 Nordeste 13 Norte 0 968.4 -0.1 49
2020-03-14 18:00:00 20.9 8 Norte 18 Norte 0 968.4 -0.6 49
2020-03-14 17:00:00 21.1 12 Norte 21 Norte 0 968.4 -1.6 49
2020-03-14 16:00:00 22.1 9 Norte 19 Norte 0 968.5 -2.2 46
2020-03-14 15:00:00 22.6 7 Norte 17 Nordeste 0 969 -2 43
2020-03-14 14:00:00 21.2 8 Nordeste 18 Norte 0 970 -1.3 48
2020-03-14 13:00:00 19.6 9 Norte 19 Norte 0 970.7 -0.5 53
2020-03-14 12:00:00 19.2 4 Norte 12 Sur 0 971 0.2 50
2020-03-14 11:00:00 17.8 8 Sur 13 Sur 0 971.3 0.8 60
2020-03-14 10:00:00 14.6 9 Sur 18 Sur 0 971.2 0.9 72
2020-03-14 09:00:00 11.5 9 Sur 16 Sur 0 970.8 0.8 86
2020-03-14 08:00:00 9.3 11 Sur 18 Sur 0 970.5 0.8 89
2020-03-14 07:00:00 8.4 2 Sudeste 8 Norte 0 970.3 0.6 85
2020-03-14 06:00:00 9.4 5 Sur 11 Sur 0 970 0 82
2020-03-14 05:00:00 10 7 Sur 11 Sur 0 969.7 -0.5 77
2020-03-14 04:00:00 10.8 8 Sur 14 Sur 0 969.7 -0.5 72
2020-03-14 03:00:00 10.8 8 Sur 13 Sur 0 970 -0.3 71
2020-03-14 02:00:00 11.2 9 Sur 13 Sur 0 970.2 0.2 69
2020-03-14 01:00:00 11.9 9 Sur 13 Sur 0 970.2 0.5 71
2020-03-14 00:00:00 12.9 8 Sur 15 Oeste 0 970.3 1 72
2020-03-13 23:00:00 14.5 10 Sudoeste 18 Oeste 0 970 1.2 75
2020-03-13 22:00:00 13.3 5 Oeste 9 Sudoeste 0 969.7 1.3 70
2020-03-13 21:00:00 15.5 3 Sudeste 12 Oeste 0 969.3 1.2 63
2020-03-13 20:00:00 17.5 3 Oeste 17 Noroeste 0 968.8 0.7 53
2020-03-13 19:00:00 20.2 7 Noroeste 19 Oeste 0 968.4 0.2 47
2020-03-13 18:00:00 21.6 12 Noroeste 23 Oeste 0 968.1 -0.4 41
2020-03-13 17:00:00 22.3 15 Noroeste 26 Noroeste 0 968.1 -1 32
2020-03-13 16:00:00 22.9 14 Oeste 23 Oeste 0 968.2 -1.4 29
2020-03-13 15:00:00 22 11 Oeste 20 Oeste 0 968.5 -1.5 35
2020-03-13 14:00:00 19.9 10 Norte 22 Norte 0 969.1 -1 51
2020-03-13 13:00:00 18.3 7 Norte 17 Norte 0 969.6 -0.3 59
2020-03-13 12:00:00 16.4 9 Norte 17 Norte 0 970 0.5 63
2020-03-13 11:00:00 13.6 8 Norte 14 Norte 0 970.1 1.1 76
2020-03-13 10:00:00 12.3 8 Norte 12 Norte 0 969.9 1 78
2020-03-13 09:00:00 9.3 2 Oeste 5 Norte 0 969.5 0.8 87
2020-03-13 08:00:00 7.2 0 Calma 10 Sur 0 969 0.2 87
2020-03-13 07:00:00 7.5 3 Este 10 Sur 0 968.9 -0.1 85
2020-03-13 06:00:00 8.3 6 Sur 9 Sur 0 968.7 -0.6 85
2020-03-13 05:00:00 8.4 6 Sur 9 Sur 0 968.8 -0.9 84
2020-03-13 04:00:00 9.6 3 Sur 8 Sur 0 969 -1 83
2020-03-13 03:00:00 11.3 4 Sudoeste 11 Sur 0 969.3 -1 80
2020-03-13 02:00:00 11.4 7 Sur 10 Sur 0 969.7 -0.4 75
2020-03-13 01:00:00 13.8 2 Sudoeste 10 Oeste 0 970 0 69
2020-03-13 00:00:00 14.1 8 Sudoeste 11 Sudoeste 0 970.3 0.6 68
2020-03-12 23:00:00 16.2 2 Sudoeste 13 Oeste 0 970.1 0.9 64
2020-03-12 22:00:00 17.1 9 Oeste 18 Oeste 0 970 1.3 60
2020-03-12 21:00:00 18.1 11 Oeste 25 Noroeste 0 969.7 1.1 62
2020-03-12 20:00:00 20.5 14 Noroeste 26 Oeste 0 969.2 0.7 51
2020-03-12 19:00:00 23.3 11 Oeste 22 Oeste 0 968.7 -0.1 40
2020-03-12 18:00:00 25.5 14 Oeste 27 Oeste 0 968.6 -0.7 31
2020-03-12 17:00:00 27 15 Oeste 27 Oeste 0 968.5 -1.7 28
2020-03-12 16:00:00 28.3 13 Oeste 21 Oeste 0 968.8 -2.2 25
2020-03-12 15:00:00 28.1 14 Sur 27 Sur 0 969.3 -2.1 18
2020-03-12 14:00:00 28.1 15 Sur 27 Sudeste 0 970.2 -1.5 17
2020-03-12 13:00:00 27.6 15 Sur 31 Sur 0 971 -0.4 19
2020-03-12 12:00:00 26.4 17 Sur 29 Sur 0 971.4 0.3 20
2020-03-12 11:00:00 24.3 10 Sur 22 Sur 0 971.7 1 26
2020-03-12 10:00:00 20.9 11 Sur 23 Sur 0 971.4 0.7 33
2020-03-12 09:00:00 16.4 12 Sur 24 Sur 0 971.1 0.5 42
2020-03-12 08:00:00 14.4 12 Sur 19 Sur 0 970.7 0.1 45
2020-03-12 07:00:00 12.9 11 Sur 15 Sur 0 970.7 -0.3 49
2020-03-12 06:00:00 13 8 Sur 13 Sur 0 970.6 -1 49
2020-03-12 05:00:00 13.3 10 Sur 15 Sur 0 970.6 -1 49
2020-03-12 04:00:00 14 9 Sur 18 Sur 0 971 -1 48
2020-03-12 03:00:00 13.6 8 Sur 17 Sur 0 971.6 -0.9 48
2020-03-12 02:00:00 14.3 9 Sur 19 Sudeste 0 971.6 -0.9 46
2020-03-12 01:00:00 15.1 12 Sur 16 Sudeste 0 972 -0.6 43
2020-03-12 00:00:00 15.2 10 Sur 17 Sur 0 972.5 0.2 43
2020-03-11 23:00:00 13.9 5 Sudoeste 10 Sur 0 972.5 0.2 47
2020-03-11 22:00:00 14 7 Sur 10 Sur 0 972.6 0.5 47
2020-03-11 21:00:00 16.6 7 Sur 9 Sur 0 972.3 0.4 39
2020-03-11 20:00:00 20.8 4 Sur 14 Sur 0 972.3 0.1 31
2020-03-11 19:00:00 24.6 8 Sur 23 Sur 0 972.1 -0.4 23
2020-03-11 18:00:00 26.8 14 Sur 28 Sur 0 971.9 -1 21
2020-03-11 17:00:00 27.1 12 Sur 32 Sur 0 972.2 -1.4 21
2020-03-11 16:00:00 27.5 17 Sur 38 Sur 0 972.5 -1.8 20
2020-03-11 15:00:00 28 20 Sur 39 Sur 0 972.9 -2.1 20
2020-03-11 14:00:00 28 19 Sur 36 Sur 0 973.6 -1.7 19
2020-03-11 13:00:00 27.2 17 Sur 36 Sur 0 974.3 -0.8 22
2020-03-11 12:00:00 25.6 17 Sur 28 Sur 0 975 0.2 23
2020-03-11 11:00:00 22.8 6 Sur 14 Sur 0 975.3 0.6 30
2020-03-11 10:00:00 18.9 9 Sur 15 Sur 0 975.1 0.6 39
2020-03-11 09:00:00 12.2 7 Sur 12 Sur 0 974.8 0.2 56
2020-03-11 08:00:00 8.9 3 Sur 12 Sudoeste 0 974.7 0 62
2020-03-11 07:00:00 10.3 9 Sur 19 Sur 0 974.5 -0.4 54
2020-03-11 06:00:00 11.4 12 Sur 18 Sur 0 974.6 -0.7 50
2020-03-11 05:00:00 12.1 13 Sur 18 Sudoeste 0 974.7 -0.9 47
2020-03-11 04:00:00 11.8 8 Sur 21 Sur 0 974.9 -1.1 49
2020-03-11 03:00:00 11.4 8 Sur 22 Sur 0 975.3 -1 50
2020-03-11 02:00:00 12.2 13 Sur 21 Sur 0 975.6 -0.9 47
2020-03-11 01:00:00 12.3 13 Sur 24 Sur 0 976 -0.6 47
2020-03-11 00:00:00 13 13 Sur 24 Sur 0 976.3 -0.2 47
2020-03-10 23:00:00 13.3 15 Sur 20 Sur 0 976.5 0.1 47
2020-03-10 22:00:00 13.9 13 Sur 22 Sur 0 976.6 0.4 47
2020-03-10 21:00:00 15.1 13 Sur 24 Sudoeste 0 976.5 0.4 45
2020-03-10 20:00:00 17.1 11 Sur 21 Sur 0 976.4 0.3 40
2020-03-10 19:00:00 20.5 12 Sur 22 Sur 0 976.2 0 31
2020-03-10 18:00:00 22.5 13 Sur 22 Sur 0 976.1 -0.6 27
2020-03-10 17:00:00 24.3 11 Sur 22 Sur 0 976.1 -0.9 23
2020-03-10 16:00:00 25.1 12 Sur 24 Sur 0 976.2 -1.3 22
2020-03-10 15:00:00 24.9 10 Sur 26 Sur 0 976.7 -1.1 23
2020-03-10 14:00:00 24.5 13 Sur 25 Sur 0 977 -0.6 22
2020-03-10 13:00:00 24.1 10 Sur 22 Sur 0 977.5 0.1 23
2020-03-10 12:00:00 23.1 6 Sur 15 Sudoeste 0 977.8 1 25
2020-03-10 11:00:00 20.7 6 Este 13 Este 0 977.6 1.5 29
2020-03-10 10:00:00 15 3 Norte 12 Norte 0 977.4 1.6 48
2020-03-10 09:00:00 10.2 2 Oeste 7 Sur 0 976.8 1.1 65
2020-03-10 08:00:00 6.1 7 Sur 10 Sur 0 976.1 0.6 74
2020-03-10 07:00:00 7.1 3 Oeste 12 Sur 0 975.8 0.3 70
2020-03-10 06:00:00 5.5 6 Sur 11 Sur 0 975.7 -0.5 75
2020-03-10 05:00:00 5.4 5 Sur 10 Sur 0 975.5 -1.1 74
2020-03-10 04:00:00 6 4 Sur 9 Sur 0 975.5 -1.4 71
2020-03-10 03:00:00 6.5 8 Sur 10 Sur 0 976.2 -0.6 70
2020-03-10 02:00:00 7 4 Sudoeste 9 Sur 0 976.6 0 66
2020-03-10 01:00:00 7.9 4 Sur 7 Sur 0 976.9 0.8 63
2020-03-10 00:00:00 9.8 0 Calma 9 Noroeste 0 976.8 0.8 58
2020-03-09 23:00:00 12.2 8 Oeste 11 Noroeste 0 976.6 1 54
2020-03-09 22:00:00 12.5 4 Oeste 9 Oeste 0 976.1 0.5 52
2020-03-09 21:00:00 13.3 6 Oeste 10 Oeste 0 976 1 49
2020-03-09 20:00:00 15.4 4 Sudoeste 13 Noroeste 0 975.6 0.3 41
2020-03-09 19:00:00 18.5 11 Noroeste 23 Norte 0 975.6 -0.1 35
2020-03-09 18:00:00 19.4 12 Noroeste 23 Norte 0 975 -1.1 31
2020-03-09 17:00:00 19.7 14 Norte 30 Norte 0 975.3 -1.7 29
2020-03-09 16:00:00 19.9 15 Norte 25 Norte 0 975.7 -1.8 27
2020-03-09 15:00:00 19.7 17 Norte 28 Norte 0 976.1 -2.1 26
2020-03-09 14:00:00 19.7 11 Norte 22 Norte 0 977 -1.3 29
2020-03-09 13:00:00 18.5 5 Noroeste 14 Norte 0 977.5 -0.4 32
2020-03-09 12:00:00 16.6 8 Noroeste 18 Norte 0 978.2 0.7 40
2020-03-09 11:00:00 15.4 11 Norte 19 Noroeste 0 978.3 1.3 46
2020-03-09 10:00:00 13.3 5 Noroeste 7 Noroeste 0 977.9 1.1 55
2020-03-09 09:00:00 8.4 3 Sur 11 Sur 0 977.5 1.2 72
2020-03-09 08:00:00 3.8 9 Sur 11 Sur 0 977 0.8 79
2020-03-09 07:00:00 4.1 6 Sur 9 Sur 0 976.8 0.1 74
2020-03-09 06:00:00 4.6 5 Sur 9 Sur 0 976.3 -0.6 72
2020-03-09 05:00:00 5 3 Sur 10 Sur 0 976.2 -0.8 69
2020-03-09 04:00:00 5.7 4 Sur 8 Sur 0 976.7 -0.3 66
2020-03-09 03:00:00 6.9 6 Sur 9 Sur 0 976.9 -0.1 61
2020-03-09 02:00:00 8.9 5 Norte 15 Norte 0 977 0.1 54
2020-03-09 01:00:00 13.3 4 Noroeste 15 Noroeste 0 977 0.2 41
2020-03-09 00:00:00 11.6 2 Sudoeste 8 Sudoeste 0 977 0.3 46
2020-03-08 23:00:00 13.8 4 Oeste 13 Sudoeste 0 976.9 0.3 40
2020-03-08 22:00:00 13 5 Oeste 10 Sudoeste 0 976.8 0.7 42
2020-03-08 21:00:00 13.7 4 Sudoeste 9 Oeste 0 976.7 1.2 40
2020-03-08 20:00:00 15.9 4 Oeste 15 Noroeste 0 976.6 1.4 33
2020-03-08 19:00:00 19.1 9 Noroeste 21 Noroeste 0 976.1 0.5 27
2020-03-08 18:00:00 22 9 Oeste 17 Norte 0 975.5 -0.1 18
2020-03-08 17:00:00 21.9 10 Norte 26 Norte 0 975.2 -1.2 21
2020-03-08 16:00:00 22.2 15 Norte 29 Norte 0 975.6 -1.9 23
2020-03-08 15:00:00 22.4 6 Nordeste 14 Norte 0 975.6 -2 19
2020-03-08 14:00:00 21.9 4 Oeste 15 Nordeste 0 976.4 -1.4 20
2020-03-08 13:00:00 19.9 4 Oeste 14 Noroeste 0 977.5 0.2 24
2020-03-08 12:00:00 18.2 3 Norte 10 Este 0 977.6 0.6 29
2020-03-08 11:00:00 15.5 3 Nordeste 10 Sur 0 977.8 1.5 37
2020-03-08 10:00:00 12 7 Sur 16 Sur 0 977.3 1.1 46
2020-03-08 09:00:00 6.9 9 Sur 14 Sur 0 977 1.1 63
2020-03-08 08:00:00 2.9 5 Oeste 14 Sur 0 976.3 0.4 75
2020-03-08 07:00:00 2.4 5 Sur 14 Sur 0 976.2 0.1 76
2020-03-08 06:00:00 3.5 10 Sur 12 Sur 0 975.9 -0.5 75
2020-03-08 05:00:00 2.3 4 Sur 8 Sur 0 975.9 -0.8 75
2020-03-08 04:00:00 3.2 8 Sur 11 Sur 0 976.1 -0.7 72
2020-03-08 03:00:00 3.3 9 Sur 10 Sur 0 976.4 -0.9 72
2020-03-08 02:00:00 3.4 7 Sur 9 Sur 0 976.7 -0.9 69
2020-03-08 01:00:00 3.9 5 Sur 9 Sur 0 976.8 -0.5 66
2020-03-08 00:00:00 4.8 8 Sur 10 Sur 0 977.3 0.6 62
2020-03-07 23:00:00 5.5 6 Sur 9 Sur 0 977.6 1.4 58
2020-03-07 22:00:00 6.7 8 Sur 10 Sur 0 977.3 1.9 54
2020-03-07 21:00:00 8.4 6 Sur 9 Sur 0 976.7 1.7 48
2020-03-07 20:00:00 13 3 Norte 21 Nordeste 0 976.2 1.4 37
2020-03-07 19:00:00 15.5 9 Nordeste 28 Nordeste 0 975.4 0.6 29
2020-03-07 18:00:00 17 -- -- -- -- 0 975 -0.3 27
2020-03-07 17:00:00 17.4 17 Norte 29 Norte 0 974.8 -0.9 27
2020-03-07 16:00:00 17.6 12 Norte 30 Norte 0 974.8 -1.8 27
2020-03-07 15:00:00 17.8 14 Norte 30 Nordeste 0 975.3 -1.8 26
2020-03-07 14:00:00 17.4 14 Norte 31 Norte 0 975.7 -1.6 26
2020-03-07 13:00:00 16.7 12 Norte 23 Nordeste 0 976.6 -0.8 27
2020-03-07 12:00:00 14.6 13 Norte 21 Nordeste 0 977.1 0.1 30
2020-03-07 11:00:00 13.4 14 Nordeste 24 Este 0 977.3 1.1 32
2020-03-07 10:00:00 8.9 3 Noroeste 6 Sur 0 977.4 1.5 62
2020-03-07 09:00:00 3.5 0 Calma 8 Sur 0 977 1.8 86
2020-03-07 08:00:00 1.4 4 Sur 8 Sur 0 976.2 1.2 86
2020-03-07 07:00:00 1.2 6 Sur 9 Sur 0 975.9 0.4 85
2020-03-07 06:00:00 1.6 6 Sur 9 Sur 0 975.2 -0.8 82
2020-03-07 05:00:00 3 6 Sur 11 Sur 0 975 -0.8 78
2020-03-07 04:00:00 4.8 2 Sudoeste 9 Oeste 0 975.5 -0.3 76
2020-03-07 03:00:00 5.5 6 Oeste 12 Oeste 0 976 0.3 74
2020-03-07 02:00:00 4.2 5 Sudoeste 10 Sur 0 975.8 0.8 72
2020-03-07 01:00:00 4.4 8 Sur 10 Sur 0 975.8 1.2 72
2020-03-07 00:00:00 5.4 3 Sudeste 12 Noroeste 0 975.7 1.9 67
2020-03-06 23:00:00 9 8 Noroeste 13 Norte 0 975 1.9 58
2020-03-06 22:00:00 10.4 10 Norte 22 Norte 0 974.6 2.3 51
2020-03-06 21:00:00 12.9 13 Noroeste 26 Noroeste 0 973.8 2.2 41
2020-03-06 20:00:00 13.4 11 Noroeste 30 Noroeste 0 973.1 1.2 40
2020-03-06 19:00:00 14.8 16 Noroeste 38 Noroeste 0 972.3 0.3 37
2020-03-06 18:00:00 16.1 19 Noroeste 37 Noroeste 0 971.6 -0.9 35
2020-03-06 17:00:00 16.1 23 Noroeste 45 Noroeste 0 971.9 -1.4 37
2020-03-06 16:00:00 16.2 22 Noroeste 40 Noroeste 0 972 -2 39
2020-03-06 15:00:00 14.9 24 Noroeste 42 Noroeste 0 972.5 -1.4 45
2020-03-06 14:00:00 14.8 22 Noroeste 37 Noroeste 0 973.3 -1.2 46
2020-03-06 13:00:00 13.2 19 Noroeste 36 Noroeste 0 974 -0.3 51
2020-03-06 12:00:00 13.4 19 Noroeste 38 Noroeste 0 973.9 0.3 59
2020-03-06 11:00:00 12 18 Oeste -- -- 0 974.5 1.4 65
2020-03-06 10:00:00 9.3 10 Oeste 25 Oeste 0 974.3 1.4 78
2020-03-06 09:00:00 7.3 8 Noroeste 17 Noroeste 0 973.6 0.9 84
2020-03-06 08:00:00 5.3 0 Calma 15 Oeste 0 973.1 0.7 87
2020-03-06 07:00:00 5.6 6 Oeste 15 Noroeste 0 972.9 0.3 87
2020-03-06 06:00:00 5.8 4 Oeste 18 Noroeste 0 972.7 0 85
2020-03-06 05:00:00 6 8 Oeste 17 Oeste 0 972.4 -0.3 84
2020-03-06 04:00:00 6.7 6 Oeste 16 Oeste 0 972.6 0 80
2020-03-06 03:00:00 7.8 11 Oeste 24 Oeste 0 972.7 0.3 75
2020-03-06 02:00:00 8.1 8 Oeste 19 Oeste 0 972.7 0.6 74
2020-03-06 01:00:00 8.7 7 Oeste 16 Oeste 0 972.6 1.3 72
2020-03-06 00:00:00 9.8 10 Oeste 19 Oeste 0 972.4 1.7 68
2020-03-05 23:00:00 10.2 9 Oeste 17 Oeste 0 972.1 1.7 66
2020-03-05 22:00:00 11.5 9 Oeste 21 Oeste 0 971.3 1.6 62
2020-03-05 21:00:00 12.9 12 Oeste 22 Oeste 0 970.7 1.5 57
2020-03-05 20:00:00 13.1 10 Oeste 27 Noroeste 0 970.4 1.3 58
2020-03-05 19:00:00 14.6 15 Oeste 32 Oeste 0 969.7 0.4 63
2020-03-05 18:00:00 15.3 14 Oeste 30 Oeste 0 969.2 -0.4 66
2020-03-05 17:00:00 14.6 12 Oeste 23 Oeste 0 969.1 -1.2 74
2020-03-05 16:00:00 13.5 12 Oeste 28 Noroeste 0 969.3 -1.2 82
2020-03-05 15:00:00 13.3 15 Oeste 27 Oeste 0 969.6 -0.9 82
2020-03-05 14:00:00 14.2 16 Oeste 35 Oeste 0 970.3 -0.4 71
2020-03-05 13:00:00 15.4 19 Oeste 40 Noroeste 0 970.5 0 66
2020-03-05 12:00:00 15.8 16 Noroeste 32 Noroeste 0 970.5 0.6 65
2020-03-05 11:00:00 15.3 10 Oeste 19 Oeste 0 970.7 1 68
2020-03-05 10:00:00 13.5 12 Oeste 17 Oeste 0 970.5 1.2 74
2020-03-05 09:00:00 9.6 0 Calma 9 Sur 0 969.9 0.3 93
2020-03-05 08:00:00 5.7 7 Sur 11 Sur 0 969.7 -0.1 92
2020-03-05 07:00:00 5 7 Sur 10 Sur 0 969.3 -1.3 91
2020-03-05 06:00:00 5.2 8 Sur 10 Sur 0 969.6 -1.7 90
2020-03-05 05:00:00 5.5 8 Sur 9 Sur 0 969.8 -1.9 90
2020-03-05 04:00:00 5.7 4 Sudeste 9 Sur 0 970.6 -1.6 88
2020-03-05 03:00:00 6.9 8 Sur 9 Sur 0 971.3 -1.3 87
2020-03-05 02:00:00 8.7 4 Sur 6 Sur 0 971.7 -1.4 86
2020-03-05 01:00:00 9.6 3 Oeste 7 Oeste 0 972.2 -0.9 86
2020-03-05 00:00:00 10.2 2 Sudoeste 10 Oeste 0 972.6 -0.5 84